createdAt,value
2019-06-01T00:01:52.284Z,99.90
2019-06-01T00:04:22.851Z,99.90
2019-06-01T00:06:53.288Z,99.90
2019-06-01T00:09:23.686Z,99.90
2019-06-01T00:11:54.390Z,99.90
2019-06-01T00:14:24.906Z,99.90
2019-06-01T00:16:55.366Z,99.90
2019-06-01T00:19:25.760Z,99.90
2019-06-01T00:21:56.192Z,99.90
2019-06-01T00:24:26.592Z,99.90
2019-06-01T00:26:57.034Z,99.90
2019-06-01T00:29:27.428Z,99.90
2019-06-01T00:31:57.862Z,99.90
2019-06-01T00:34:28.327Z,99.90
2019-06-01T00:36:58.757Z,99.90
2019-06-01T00:39:29.314Z,99.90
2019-06-01T00:41:59.754Z,99.90
2019-06-01T00:44:30.155Z,99.90
2019-06-01T00:47:00.583Z,99.90
2019-06-01T00:49:30.980Z,99.90
2019-06-01T00:52:01.426Z,99.90
2019-06-01T00:54:31.887Z,99.90
2019-06-01T00:57:02.332Z,99.90
2019-06-01T00:59:32.783Z,99.90
2019-06-01T01:02:03.295Z,99.90
2019-06-01T01:04:33.691Z,99.90
2019-06-01T01:07:04.144Z,99.90
2019-06-01T01:09:34.609Z,99.90
2019-06-01T01:12:05.045Z,99.90
2019-06-01T01:14:35.440Z,99.90
2019-06-01T01:17:06.323Z,99.90
2019-06-01T01:19:36.723Z,99.90
2019-06-01T01:22:07.239Z,99.90
2019-06-01T01:24:37.633Z,99.90
2019-06-01T01:27:09.037Z,99.90
2019-06-01T01:29:39.433Z,99.90
2019-06-01T01:32:09.882Z,99.90
2019-06-01T01:34:40.270Z,99.90
2019-06-01T01:37:10.713Z,99.90
2019-06-01T01:39:42.166Z,99.90
2019-06-01T01:42:12.613Z,99.90
2019-06-01T01:44:43.004Z,99.90
2019-06-01T01:47:14.409Z,99.90
2019-06-01T01:49:44.915Z,99.90
2019-06-01T01:52:15.344Z,99.90
2019-06-01T01:54:45.755Z,99.90
2019-06-01T01:57:17.155Z,99.90
2019-06-01T01:59:47.561Z,99.90
2019-06-01T02:02:17.998Z,99.90
2019-06-01T02:04:49.361Z,99.90
2019-06-01T02:07:19.793Z,99.90
2019-06-01T02:09:51.077Z,99.90
2019-06-01T02:12:21.576Z,99.90
2019-06-01T02:14:51.966Z,99.90
2019-06-01T02:17:22.404Z,99.90
2019-06-01T02:19:54.072Z,99.90
2019-06-01T02:22:24.623Z,99.90
2019-06-01T02:24:55.846Z,99.90
2019-06-01T02:27:26.301Z,99.90
2019-06-01T02:29:57.163Z,99.90
2019-06-01T02:32:27.624Z,99.90
2019-06-01T02:34:58.576Z,99.90
2019-06-01T02:37:30.175Z,99.90
2019-06-01T02:40:00.921Z,99.90
2019-06-01T02:42:31.406Z,99.90
2019-06-01T02:45:03.546Z,99.90
2019-06-01T02:47:34.091Z,99.90
2019-06-01T02:50:07.149Z,99.90
2019-06-01T02:52:38.126Z,99.90
2019-06-01T02:55:14.731Z,99.90
2019-06-01T02:57:45.204Z,99.90
2019-06-01T03:00:18.095Z,99.90
2019-06-01T03:02:49.028Z,99.90
2019-06-01T03:05:20.500Z,99.90
2019-06-01T03:07:52.632Z,99.90
2019-06-01T03:10:23.063Z,99.90
2019-06-01T03:12:56.377Z,99.90
2019-06-01T03:15:29.724Z,99.90
2019-06-01T03:18:03.520Z,99.90
2019-06-01T03:20:35.511Z,99.90
2019-06-01T03:23:07.922Z,99.90
2019-06-01T03:25:40.593Z,99.90
2019-06-01T03:28:15.832Z,99.90
2019-06-01T03:30:46.340Z,99.90
2019-06-01T03:33:16.813Z,99.90
2019-06-01T03:35:48.401Z,99.90
2019-06-01T03:38:18.928Z,99.90
2019-06-01T03:40:49.359Z,99.90
2019-06-01T03:43:20.203Z,99.90
2019-06-01T03:45:51.026Z,99.90
2019-06-01T03:48:21.700Z,99.90
2019-06-01T03:50:52.146Z,99.90
2019-06-01T03:53:22.542Z,99.90
2019-06-01T03:55:52.967Z,99.90
2019-06-01T03:58:23.364Z,99.90
2019-06-01T04:00:53.823Z,99.90
2019-06-01T04:03:24.218Z,99.90
2019-06-01T04:05:54.647Z,99.90
2019-06-01T04:08:25.115Z,99.90
2019-06-01T04:10:55.558Z,99.90
2019-06-01T04:13:25.957Z,99.90
2019-06-01T04:15:56.391Z,99.90
2019-06-01T04:18:26.784Z,99.90
2019-06-01T04:20:57.234Z,99.90
2019-06-01T04:23:27.632Z,99.90
2019-06-01T04:25:58.091Z,99.90
2019-06-01T04:28:28.557Z,99.90
2019-06-01T04:30:58.995Z,99.90
2019-06-01T04:33:29.415Z,99.90
2019-06-01T04:35:59.847Z,99.90
2019-06-01T04:38:30.248Z,99.90
2019-06-01T04:41:01.371Z,99.90
2019-06-01T04:43:31.783Z,99.90
2019-06-01T04:46:02.214Z,99.90
2019-06-01T04:48:32.604Z,99.90
2019-06-01T04:51:03.045Z,99.90
2019-06-01T04:53:33.443Z,99.90
2019-06-01T04:56:04.803Z,99.90
2019-06-01T04:58:35.314Z,99.90
2019-06-01T05:01:06.921Z,99.90
2019-06-01T05:03:37.372Z,99.90
2019-06-01T05:06:09.138Z,99.90
2019-06-01T05:08:39.678Z,99.90
2019-06-01T05:11:10.617Z,99.90
2019-06-01T05:13:42.103Z,99.90
2019-06-01T05:16:13.405Z,99.90
2019-06-01T05:18:44.661Z,99.90
2019-06-01T05:21:15.337Z,99.90
2019-06-01T05:23:46.976Z,99.90
2019-06-01T05:26:17.423Z,99.90
2019-06-01T05:28:47.948Z,99.90
2019-06-01T05:31:24.731Z,99.90
2019-06-01T05:33:50.563Z,99.90
2019-06-01T05:36:21.000Z,99.90
2019-06-01T05:38:51.645Z,99.90
2019-06-01T05:41:22.095Z,99.90
2019-06-01T05:43:52.541Z,99.90
2019-06-01T05:46:22.981Z,99.90
2019-06-01T05:48:53.424Z,99.90
2019-06-01T05:51:23.854Z,99.90
2019-06-01T05:53:54.286Z,99.90
2019-06-01T05:56:24.683Z,99.90
2019-06-01T05:58:55.118Z,99.90
2019-06-01T06:01:25.512Z,99.90
2019-06-01T06:03:55.950Z,99.90
2019-06-01T06:06:26.347Z,99.90
2019-06-01T06:08:56.860Z,99.90
2019-06-01T06:11:27.261Z,99.90
2019-06-01T06:13:57.698Z,99.90
2019-06-01T06:16:28.096Z,99.90
2019-06-01T06:18:58.539Z,99.90
2019-06-01T06:21:28.939Z,99.90
2019-06-01T06:23:59.402Z,99.90
2019-06-01T06:26:29.816Z,99.90
2019-06-01T06:29:00.255Z,99.90
2019-06-01T06:31:30.650Z,99.90
2019-06-01T06:34:01.079Z,99.80
2019-06-01T06:36:31.483Z,99.90
2019-06-01T06:39:04.756Z,99.90
2019-06-01T06:41:35.409Z,99.90
2019-06-01T06:44:05.918Z,99.90
2019-06-01T06:46:36.368Z,99.90
2019-06-01T06:49:09.812Z,99.90
2019-06-01T06:51:38.958Z,99.90
2019-06-01T06:54:09.408Z,99.90
2019-06-01T06:56:39.810Z,99.90
2019-06-01T06:59:11.798Z,99.90
2019-06-01T07:01:42.322Z,99.90
2019-06-01T07:04:13.376Z,99.90
2019-06-01T07:06:44.000Z,99.90
2019-06-01T07:09:14.475Z,99.90
2019-06-01T07:11:45.897Z,99.90
2019-06-01T07:14:16.342Z,99.90
2019-06-01T07:16:46.738Z,99.90
2019-06-01T07:19:17.177Z,99.90
2019-06-01T07:21:47.644Z,99.90
2019-06-01T07:24:18.089Z,99.00
2019-06-01T07:26:48.809Z,99.20
2019-06-01T07:29:20.027Z,99.70
2019-06-01T07:31:50.862Z,99.20
2019-06-01T07:34:35.556Z,99.30
2019-06-01T07:36:54.682Z,99.30
2019-06-01T07:39:25.184Z,99.90
2019-06-01T07:41:55.704Z,99.90
2019-06-01T07:44:26.933Z,99.70
2019-06-01T07:46:57.376Z,98.80
2019-06-01T07:49:29.086Z,97.90
2019-06-01T07:52:11.715Z,98.20
2019-06-01T07:54:32.696Z,98.30
2019-06-01T07:57:04.364Z,99.00
2019-06-01T07:59:34.897Z,98.30
2019-06-01T08:02:05.569Z,98.20
2019-06-01T08:04:52.882Z,98.10
2019-06-01T08:07:08.300Z,98.30
2019-06-01T08:09:38.732Z,98.20
2019-06-01T08:12:09.119Z,97.40
2019-06-01T08:14:39.589Z,98.50
2019-06-01T08:17:09.993Z,98.60
2019-06-01T08:19:40.513Z,99.40
2019-06-01T08:22:10.925Z,98.70
2019-06-01T08:24:41.457Z,97.60
2019-06-01T08:27:11.853Z,96.60
2019-06-01T08:29:42.288Z,97.40
2019-06-01T08:32:12.687Z,97.10
2019-06-01T08:34:43.132Z,96.20
2019-06-01T08:37:13.551Z,96.00
2019-06-01T08:39:44.066Z,95.00
2019-06-01T08:42:14.476Z,94.70
2019-06-01T08:44:44.916Z,94.90
2019-06-01T08:47:15.377Z,93.80
2019-06-01T08:49:45.808Z,91.40
2019-06-01T08:52:16.203Z,91.30
2019-06-01T08:54:46.659Z,91.70
2019-06-01T08:57:17.126Z,90.60
2019-06-01T08:59:48.533Z,90.20
2019-06-01T09:02:19.026Z,90.40
2019-06-01T09:04:49.517Z,90.30
2019-06-01T09:07:20.042Z,90.70
2019-06-01T09:09:50.928Z,91.10
2019-06-01T09:12:21.432Z,90.60
2019-06-01T09:14:51.837Z,91.20
2019-06-01T09:17:22.275Z,92.50
2019-06-01T09:19:52.667Z,91.80
2019-06-01T09:22:25.341Z,89.00
2019-06-01T09:24:55.985Z,90.30
2019-06-01T09:27:27.659Z,88.40
2019-06-01T09:29:58.326Z,85.20
2019-06-01T09:32:29.941Z,82.40
2019-06-01T09:35:00.603Z,82.90
2019-06-01T09:37:31.114Z,80.50
2019-06-01T09:40:01.525Z,83.60
2019-06-01T09:42:33.278Z,81.80
2019-06-01T09:45:07.748Z,81.30
2019-06-01T09:47:38.211Z,82.10
2019-06-01T09:50:09.001Z,81.80
2019-06-01T09:52:39.445Z,78.50
2019-06-01T09:55:10.235Z,79.50
2019-06-01T09:57:40.662Z,78.20
2019-06-01T10:00:12.271Z,77.80
2019-06-01T10:02:42.708Z,78.40
2019-06-01T10:05:13.349Z,80.50
2019-06-01T10:07:43.776Z,81.70
2019-06-01T10:10:16.837Z,83.10
2019-06-01T10:12:47.357Z,82.60
2019-06-01T10:15:17.820Z,78.50
2019-06-01T10:17:48.316Z,78.60
2019-06-01T10:20:18.711Z,79.20
2019-06-01T10:22:49.143Z,79.90
2019-06-01T10:25:19.532Z,80.90
2019-06-01T10:27:50.165Z,80.60
2019-06-01T10:30:21.214Z,77.50
2019-06-01T10:32:51.823Z,78.70
2019-06-01T10:35:22.261Z,78.20
2019-06-01T10:37:52.716Z,78.20
2019-06-01T10:40:23.114Z,78.60
2019-06-01T10:42:53.544Z,78.80
2019-06-01T10:45:26.895Z,79.60
2019-06-01T10:47:57.377Z,80.30
2019-06-01T10:50:27.763Z,81.30
2019-06-01T10:52:58.536Z,80.60
2019-06-01T10:55:28.923Z,80.30
2019-06-01T10:57:59.365Z,83.70
2019-06-01T11:00:39.215Z,84.30
2019-06-01T11:03:02.089Z,83.60
2019-06-01T11:05:32.614Z,85.60
2019-06-01T11:08:03.125Z,86.70
2019-06-01T11:10:34.706Z,84.70
2019-06-01T11:13:05.404Z,84.80
2019-06-01T11:15:36.892Z,84.50
2019-06-01T11:18:07.408Z,83.20
2019-06-01T11:20:37.795Z,81.80
2019-06-01T11:23:08.303Z,82.60
2019-06-01T11:25:39.649Z,79.20
2019-06-01T11:28:10.207Z,80.30
2019-06-01T11:30:41.770Z,80.90
2019-06-01T11:33:13.342Z,82.20
2019-06-01T11:35:43.734Z,83.10
2019-06-01T11:38:14.164Z,83.60
2019-06-01T11:40:44.931Z,85.50
2019-06-01T11:43:15.399Z,79.70
2019-06-01T11:45:45.793Z,81.00
2019-06-01T11:48:16.228Z,78.40
2019-06-01T11:50:46.618Z,74.90
2019-06-01T11:53:17.263Z,76.60
2019-06-01T11:55:47.646Z,78.30
2019-06-01T11:58:18.158Z,74.00
2019-06-01T12:00:49.062Z,73.40
2019-06-01T12:03:19.520Z,74.40
2019-06-01T12:05:49.990Z,75.80
2019-06-01T12:08:20.433Z,75.00
2019-06-01T12:10:51.022Z,71.80
2019-06-01T12:13:21.452Z,73.80
2019-06-01T12:15:51.861Z,75.80
2019-06-01T12:18:22.314Z,72.80
2019-06-01T12:20:52.724Z,74.90
2019-06-01T12:23:23.201Z,74.10
2019-06-01T12:25:53.764Z,79.00
2019-06-01T12:28:24.199Z,77.30
2019-06-01T12:30:54.590Z,71.30
2019-06-01T12:33:26.104Z,78.80
2019-06-01T12:35:56.497Z,82.30
2019-06-01T12:38:26.924Z,78.50
2019-06-01T12:40:57.397Z,78.50
2019-06-01T12:43:27.836Z,77.10
2019-06-01T12:46:07.404Z,77.40
2019-06-01T12:48:30.358Z,73.00
2019-06-01T12:51:00.764Z,69.90
2019-06-01T12:53:31.200Z,68.90
2019-06-01T12:56:01.589Z,72.80
2019-06-01T12:58:33.009Z,72.20
2019-06-01T13:01:03.502Z,67.90
2019-06-01T13:03:33.931Z,70.60
2019-06-01T13:06:04.468Z,64.00
2019-06-01T13:08:34.908Z,65.40
2019-06-01T13:11:05.344Z,63.20
2019-06-01T13:13:35.726Z,64.80
2019-06-01T13:16:06.153Z,69.30
2019-06-01T13:18:36.552Z,68.80
2019-06-01T13:21:06.982Z,68.30
2019-06-01T13:23:37.375Z,70.70
2019-06-01T13:26:07.865Z,73.90
2019-06-01T13:28:39.219Z,70.60
2019-06-01T13:31:09.648Z,70.70
2019-06-01T13:33:40.042Z,75.30
2019-06-01T13:36:10.471Z,74.60
2019-06-01T13:38:40.861Z,75.80
2019-06-01T13:41:11.370Z,78.00
2019-06-01T13:43:43.576Z,77.10
2019-06-01T13:46:13.871Z,76.70
2019-06-01T13:48:45.506Z,77.50
2019-06-01T13:51:16.061Z,77.60
2019-06-01T13:53:46.455Z,75.20
2019-06-01T13:56:16.894Z,76.00
2019-06-01T13:58:48.205Z,79.00
2019-06-01T14:01:18.701Z,77.10
2019-06-01T14:03:49.427Z,78.20
2019-06-01T14:06:19.998Z,77.90
2019-06-01T14:08:51.075Z,75.40
2019-06-01T14:11:21.588Z,75.60
2019-06-01T14:13:52.104Z,77.70
2019-06-01T14:16:23.682Z,74.70
2019-06-01T14:18:54.135Z,74.60
2019-06-01T14:21:24.612Z,72.70
2019-06-01T14:23:56.064Z,73.10
2019-06-01T14:26:26.682Z,69.50
2019-06-01T14:28:57.064Z,69.40
2019-06-01T14:31:27.491Z,67.20
2019-06-01T14:33:57.884Z,70.60
2019-06-01T14:36:28.322Z,67.10
2019-06-01T14:38:58.956Z,67.10
2019-06-01T14:41:29.440Z,64.70
2019-06-01T14:43:59.823Z,64.10
2019-06-01T14:46:30.254Z,62.80
2019-06-01T14:49:00.653Z,60.30
2019-06-01T14:51:31.081Z,61.70
2019-06-01T14:54:01.487Z,64.20
2019-06-01T14:56:31.982Z,67.10
2019-06-01T14:59:02.374Z,68.80
2019-06-01T15:01:33.310Z,69.80
2019-06-01T15:04:04.908Z,70.10
2019-06-01T15:06:35.332Z,68.10
2019-06-01T15:09:18.565Z,69.90
2019-06-01T15:11:40.638Z,67.60
2019-06-01T15:14:11.040Z,70.50
2019-06-01T15:16:41.486Z,66.60
2019-06-01T15:19:11.875Z,68.30
2019-06-01T15:21:42.397Z,69.50
2019-06-01T15:24:12.787Z,69.00
2019-06-01T15:26:43.892Z,69.40
2019-06-01T15:29:14.307Z,71.60
2019-06-01T15:31:44.760Z,69.20
2019-06-01T15:34:15.157Z,70.10
2019-06-01T15:36:45.658Z,71.00
2019-06-01T15:39:24.885Z,69.90
2019-06-01T15:41:48.477Z,70.40
2019-06-01T15:44:19.130Z,74.70
2019-06-01T15:46:49.631Z,72.60
2019-06-01T15:49:20.058Z,72.20
2019-06-01T15:51:51.764Z,73.80
2019-06-01T15:54:22.248Z,73.30
2019-06-01T15:56:52.692Z,72.30
2019-06-01T15:59:23.147Z,75.10
2019-06-01T16:01:54.905Z,73.70
2019-06-01T16:04:25.512Z,73.80
2019-06-01T16:06:57.155Z,75.20
2019-06-01T16:09:42.102Z,76.00
2019-06-01T16:11:59.842Z,75.20
2019-06-01T16:14:32.997Z,75.50
2019-06-01T16:17:04.798Z,73.90
2019-06-01T16:19:36.401Z,75.30
2019-06-01T16:22:06.913Z,76.70
2019-06-01T16:24:37.375Z,76.40
2019-06-01T16:27:07.843Z,76.10
2019-06-01T16:29:38.285Z,77.40
2019-06-01T16:32:08.776Z,77.10
2019-06-01T16:34:39.231Z,77.60
2019-06-01T16:37:09.681Z,78.70
2019-06-01T16:39:40.129Z,78.50
2019-06-01T16:42:11.147Z,77.30
2019-06-01T16:44:41.604Z,76.10
2019-06-01T16:47:12.126Z,77.60
2019-06-01T16:49:42.555Z,77.70
2019-06-01T16:52:12.980Z,77.90
2019-06-01T16:54:43.464Z,80.60
2019-06-01T16:57:13.980Z,79.20
2019-06-01T16:59:44.558Z,79.80
2019-06-01T17:02:15.388Z,80.00
2019-06-01T17:04:45.885Z,81.40
2019-06-01T17:07:16.273Z,81.10
2019-06-01T17:09:46.731Z,81.60
2019-06-01T17:12:17.119Z,82.90
2019-06-01T17:14:47.784Z,82.60
2019-06-01T17:17:18.322Z,83.90
2019-06-01T17:19:48.910Z,83.60
2019-06-01T17:22:19.577Z,83.70
2019-06-01T17:24:50.027Z,84.40
2019-06-01T17:27:20.415Z,84.70
2019-06-01T17:29:50.839Z,85.00
2019-06-01T17:32:24.503Z,86.20
2019-06-01T17:34:53.423Z,86.60
2019-06-01T17:37:23.815Z,87.10
2019-06-01T17:39:54.391Z,86.90
2019-06-01T17:42:25.822Z,87.50
2019-06-01T17:44:56.268Z,87.50
2019-06-01T17:47:27.206Z,88.30
2019-06-01T17:49:58.053Z,88.70
2019-06-01T17:52:28.445Z,89.20
2019-06-01T17:54:58.871Z,89.20
2019-06-01T17:57:29.269Z,89.70
2019-06-01T17:59:59.701Z,90.10
2019-06-01T18:02:30.160Z,90.50
2019-06-01T18:05:01.926Z,90.30
2019-06-01T18:07:32.474Z,91.00
2019-06-01T18:10:04.630Z,90.90
2019-06-01T18:12:35.218Z,91.40
2019-06-01T18:15:08.305Z,91.50
2019-06-01T18:17:38.896Z,91.60
2019-06-01T18:20:10.994Z,92.20
2019-06-01T18:22:41.755Z,92.90
2019-06-01T18:25:21.611Z,94.00
2019-06-01T18:27:52.187Z,94.90
2019-06-01T18:30:23.831Z,95.10
2019-06-01T18:32:57.284Z,95.60
2019-06-01T18:35:27.960Z,96.20
2019-06-01T18:37:58.350Z,97.10
2019-06-01T18:40:28.830Z,98.00
2019-06-01T18:43:04.047Z,98.50
2019-06-01T18:45:34.549Z,99.10
2019-06-01T18:48:06.080Z,99.20
2019-06-01T18:50:37.781Z,99.70
2019-06-01T18:53:08.546Z,99.90
2019-06-01T18:55:38.984Z,99.90
2019-06-01T18:58:10.309Z,99.90
2019-06-01T19:00:40.976Z,99.90
2019-06-01T19:03:12.256Z,99.90
2019-06-01T19:05:43.633Z,99.90
2019-06-01T19:08:16.181Z,99.90
2019-06-01T19:10:48.796Z,99.90
2019-06-01T19:13:19.788Z,99.90
2019-06-01T19:15:50.291Z,99.90
2019-06-01T19:18:20.684Z,99.90
2019-06-01T19:20:51.132Z,99.90
2019-06-01T19:23:22.971Z,99.90
2019-06-01T19:25:53.514Z,99.90
2019-06-01T19:28:23.908Z,99.90
2019-06-01T19:30:54.602Z,99.90
2019-06-01T19:33:24.991Z,99.90
2019-06-01T19:35:55.598Z,99.90
2019-06-01T19:38:26.798Z,99.90
2019-06-01T19:40:57.302Z,99.90
2019-06-01T19:43:27.858Z,99.90
2019-06-01T19:45:58.299Z,99.90
2019-06-01T19:48:28.687Z,99.90
2019-06-01T19:50:59.129Z,99.90
2019-06-01T19:53:29.588Z,99.90
2019-06-01T19:56:00.088Z,99.90
2019-06-01T19:58:30.600Z,99.90
2019-06-01T20:01:01.050Z,99.90
2019-06-01T20:03:32.505Z,99.90
2019-06-01T20:06:02.975Z,99.90
2019-06-01T20:08:33.412Z,99.90
2019-06-01T20:11:03.928Z,99.90
2019-06-01T20:13:34.317Z,99.90
2019-06-01T20:16:04.821Z,99.90
2019-06-01T20:18:35.220Z,99.90
2019-06-01T20:21:05.800Z,99.90
2019-06-01T20:23:36.262Z,99.90
2019-06-01T20:26:06.721Z,99.90
2019-06-01T20:28:38.081Z,99.90
2019-06-01T20:31:08.593Z,99.90
2019-06-01T20:33:39.110Z,99.90
2019-06-01T20:36:09.553Z,99.90
2019-06-01T20:38:39.979Z,99.90
2019-06-01T20:41:10.394Z,99.90
2019-06-01T20:43:40.988Z,99.90
2019-06-01T20:46:12.831Z,99.90
2019-06-01T20:48:43.468Z,99.90
2019-06-01T20:51:14.729Z,99.90
2019-06-01T20:53:45.653Z,99.90
2019-06-01T20:56:17.292Z,99.90
2019-06-01T20:58:47.987Z,99.90
2019-06-01T21:01:19.708Z,99.90
2019-06-01T21:03:50.241Z,99.90
2019-06-01T21:06:21.191Z,99.90
2019-06-01T21:08:52.816Z,99.90
2019-06-01T21:11:24.429Z,99.90
2019-06-01T21:13:54.975Z,99.90
2019-06-01T21:16:25.381Z,99.90
2019-06-01T21:18:55.818Z,99.90
2019-06-01T21:21:26.215Z,99.90
2019-06-01T21:23:56.664Z,99.90
2019-06-01T21:26:27.245Z,99.90
2019-06-01T21:28:57.697Z,99.90
2019-06-01T21:31:28.102Z,99.90
2019-06-01T21:33:58.703Z,99.90
2019-06-01T21:36:29.249Z,99.90
2019-06-01T21:38:59.740Z,99.90
2019-06-01T21:41:30.151Z,99.90
2019-06-01T21:44:00.826Z,99.90
2019-06-01T21:46:31.234Z,99.90
2019-06-01T21:49:01.721Z,99.90
2019-06-01T21:51:32.170Z,99.90
2019-06-01T21:54:02.611Z,99.90
2019-06-01T21:56:33.026Z,99.90
2019-06-01T21:59:03.464Z,99.90
2019-06-01T22:01:33.874Z,99.90
2019-06-01T22:04:04.448Z,99.90
2019-06-01T22:06:34.840Z,99.90
2019-06-01T22:09:07.221Z,99.90
2019-06-01T22:11:39.099Z,99.90
2019-06-01T22:14:09.534Z,99.90
2019-06-01T22:16:39.936Z,99.90
2019-06-01T22:19:10.379Z,99.90
2019-06-01T22:21:40.777Z,99.90
2019-06-01T22:24:11.211Z,99.90
2019-06-01T22:26:41.605Z,99.90
2019-06-01T22:29:12.044Z,99.90
2019-06-01T22:31:42.441Z,99.90
2019-06-01T22:34:12.873Z,99.90
2019-06-01T22:36:43.268Z,99.90
2019-06-01T22:39:13.717Z,99.90
2019-06-01T22:41:45.736Z,99.90
2019-06-01T22:44:16.197Z,99.90
2019-06-01T22:46:47.371Z,99.90
2019-06-01T22:49:19.009Z,99.90
2019-06-01T22:51:53.243Z,99.90
2019-06-01T22:54:25.121Z,99.90
2019-06-01T22:56:56.232Z,99.90
2019-06-01T22:59:26.733Z,99.90
2019-06-01T23:01:57.174Z,99.90
2019-06-01T23:04:29.131Z,99.90
2019-06-01T23:07:02.365Z,99.90
2019-06-01T23:09:33.445Z,99.90
2019-06-01T23:12:04.053Z,99.90
2019-06-01T23:14:34.590Z,99.90
2019-06-01T23:17:05.499Z,99.90
2019-06-01T23:19:36.208Z,99.90
2019-06-01T23:22:06.762Z,99.90
2019-06-01T23:24:38.364Z,99.90
2019-06-01T23:27:08.893Z,99.90
2019-06-01T23:29:39.438Z,99.90
2019-06-01T23:32:10.074Z,99.90
2019-06-01T23:34:40.728Z,99.90
2019-06-01T23:37:11.216Z,99.90
2019-06-01T23:39:41.740Z,99.90
2019-06-01T23:42:12.249Z,99.90
2019-06-01T23:44:42.696Z,99.90
2019-06-01T23:47:13.093Z,99.90
2019-06-01T23:49:43.550Z,99.90
2019-06-01T23:52:13.950Z,99.90
2019-06-01T23:54:44.431Z,99.90
2019-06-01T23:57:14.919Z,99.90
2019-06-01T23:59:45.394Z,99.90
